Aérodrome :
LOGIN :

S'inscrire | Disclaimer

   EN    FR    IT 

 










Légende :    VFR   VFR Marginal   IFR   IFR Intensif   IFR Très Intensif
Visi : 
Plafond : 
>= 8 km
>= 3000ft
5 à 8 km
1000 à 3000 ft
1500m à 5 km
500 à 1000 ft
800 à 1500m
200 à 500 ft
< 800m
< 200 ft
Symboles :   Orages  Brouillard  Fortes neiges  Fortes précipitations  Vent > 20 kt
SIGMETs :   Divers  Orages  Givrage  Turbulence  Onde Orograph.  Cendres Volcan.







- Altitude de l'aérodrome : 63 ft
- Code IATA : BZM


EHWO - Woensdrecht Airbase

DERNIER METAR :
  • 171125Z AUTO 24006KT 9999 FEW026 OVC240 05/04 Q1023 BLU

METARs EXPIRÉS :
  • 171055Z AUTO 25008KT 9999 FEW310 05/04 Q1023 BLU
  • 171025Z AUTO 23004KT 9999 FEW050 SCT340 04/04 Q1024 BLU
  • 170955Z AUTO 23003KT 9999 NCD 03/03 Q1023 BLU
  • 170925Z AUTO 23002KT 9999 NCD 02/02 Q1023 BLU
  • 170855Z AUTO 24003KT 230V300 9999 NCD 01/01 Q1023 BLU

Prévision TAF périmée.
Pas de NOTAMs connus pour ce terrain.



MET'MAP, la Météo Aéronautique d'un coup d'oeil ! - Copyright ORBIFLY Décembre 2007 - Disclaimer

ORBIFLY MET'MAP TEAM :

Programmation & Développement : Alexandra Zaïnal
Conception & Développement : Baudouin d'Aumeries
Co-Programmation & Développement : Marc-Olivier Méhu
Soutien technique & logistique : Manuel Goepfert

Contact : metmap@orbifly.com




SOURCES & CREDITS :

   NOAA